FDX209 KMEM-KVPS
Flight info
| Callsign | FDX209 |
|---|---|
| Flight time | 0h 53m |
| Altitude | 33000 |
| Route | PIEPE6 IBUFY MEI CEW |
| Aircraft | A306/H-SDE3FGHIRWY/LB1 |
Departure
| Time | 2026-04-24 20:56 |
|---|---|
| Airport | Memphis International Airport (KMEM) |
Arrival
| Time | 2026-04-24 21:49 |
|---|---|
| Airport | Destin-Fort Walton Beach Airport (KVPS) |
| Time | Latitude | Longitude | Altitude | Speed | Heading |
|---|---|---|---|---|---|
| 2026-04-24 20:13 | 35.05981 | -89.96323 | 333 ft | 0 kts | 181° |
| 2026-04-24 20:44 | 35.05983 | -89.96323 | 333 ft | 2 kts | 181° |
| 2026-04-24 20:44 | 35.06008 | -89.96320 | 334 ft | 4 kts | 197° |
| 2026-04-24 20:45 | 35.06031 | -89.96307 | 333 ft | 4 kts | 225° |
| 2026-04-24 20:45 | 35.06044 | -89.96282 | 331 ft | 4 kts | 265° |
| 2026-04-24 20:45 | 35.06045 | -89.96273 | 331 ft | 1 kts | 269° |
| 2026-04-24 20:45 | 35.06045 | -89.96271 | 334 ft | 0 kts | 269° |
| 2026-04-24 20:48 | 35.06044 | -89.96308 | 331 ft | 10 kts | 270° |
| 2026-04-24 20:48 | 35.06047 | -89.96391 | 336 ft | 9 kts | 272° |
| 2026-04-24 20:48 | 35.06042 | -89.96456 | 337 ft | 7 kts | 250° |
| 2026-04-24 20:49 | 35.06019 | -89.96492 | 333 ft | 4 kts | 221° |
| 2026-04-24 20:49 | 35.06000 | -89.96510 | 335 ft | 2 kts | 216° |
| 2026-04-24 20:49 | 35.05999 | -89.96511 | 336 ft | 0 kts | 216° |
| 2026-04-24 20:50 | 35.05991 | -89.96518 | 331 ft | 6 kts | 216° |
| 2026-04-24 20:50 | 35.05935 | -89.96573 | 334 ft | 12 kts | 230° |
| 2026-04-24 20:50 | 35.05919 | -89.96681 | 335 ft | 16 kts | 271° |
| 2026-04-24 20:50 | 35.05922 | -89.96803 | 333 ft | 13 kts | 271° |
| 2026-04-24 20:51 | 35.05923 | -89.96906 | 332 ft | 11 kts | 270° |
| 2026-04-24 20:51 | 35.05924 | -89.97000 | 336 ft | 13 kts | 271° |
| 2026-04-24 20:51 | 35.05928 | -89.97119 | 336 ft | 13 kts | 268° |
| 2026-04-24 20:51 | 35.05879 | -89.97182 | 333 ft | 9 kts | 196° |
| 2026-04-24 20:52 | 35.05811 | -89.97189 | 334 ft | 9 kts | 182° |
| 2026-04-24 20:52 | 35.05744 | -89.97193 | 334 ft | 10 kts | 182° |
| 2026-04-24 20:52 | 35.05676 | -89.97203 | 334 ft | 12 kts | 201° |
| 2026-04-24 20:52 | 35.05620 | -89.97268 | 334 ft | 10 kts | 232° |
| 2026-04-24 20:53 | 35.05588 | -89.97321 | 332 ft | 6 kts | 234° |
| 2026-04-24 20:53 | 35.05562 | -89.97367 | 332 ft | 8 kts | 235° |
| 2026-04-24 20:53 | 35.05534 | -89.97417 | 331 ft | 6 kts | 235° |
| 2026-04-24 20:53 | 35.05515 | -89.97451 | 333 ft | 4 kts | 235° |
| 2026-04-24 20:54 | 35.05486 | -89.97500 | 329 ft | 10 kts | 234° |
| 2026-04-24 20:54 | 35.05432 | -89.97587 | 329 ft | 12 kts | 220° |
| 2026-04-24 20:54 | 35.05368 | -89.97613 | 329 ft | 7 kts | 185° |
| 2026-04-24 20:54 | 35.05334 | -89.97610 | 329 ft | 0 kts | 175° |
| 2026-04-24 20:55 | 35.05210 | -89.97606 | 326 ft | 48 kts | 181° |
| 2026-04-24 20:55 | 35.04649 | -89.97598 | 327 ft | 111 kts | 179° |
| 2026-04-24 20:55 | 35.03688 | -89.97579 | 329 ft | 165 kts | 180° |
| 2026-04-24 20:56 | 35.02446 | -89.97577 | 732 ft | 191 kts | 180° |
| 2026-04-24 20:56 | 35.01062 | -89.97571 | 1573 ft | 200 kts | 180° |
| 2026-04-24 20:56 | 34.99675 | -89.97547 | 2500 ft | 202 kts | 180° |
| 2026-04-24 20:56 | 34.98173 | -89.97503 | 2863 ft | 230 kts | 180° |
| 2026-04-24 20:57 | 34.96495 | -89.97453 | 3371 ft | 248 kts | 180° |
| 2026-04-24 20:57 | 34.94775 | -89.97401 | 4179 ft | 251 kts | 180° |
| 2026-04-24 20:57 | 34.93018 | -89.97349 | 4845 ft | 252 kts | 181° |
| 2026-04-24 20:57 | 34.91245 | -89.97299 | 5548 ft | 256 kts | 181° |
| 2026-04-24 20:58 | 34.89448 | -89.97252 | 6273 ft | 260 kts | 182° |
| 2026-04-24 20:58 | 34.87626 | -89.97242 | 6958 ft | 262 kts | 185° |
| 2026-04-24 20:58 | 34.85793 | -89.97352 | 7657 ft | 265 kts | 187° |
| 2026-04-24 20:58 | 34.83940 | -89.97509 | 8372 ft | 268 kts | 188° |
| 2026-04-24 20:59 | 34.82097 | -89.97680 | 9088 ft | 271 kts | 189° |
| 2026-04-24 20:59 | 34.80205 | -89.97850 | 9830 ft | 275 kts | 187° |
| 2026-04-24 20:59 | 34.78273 | -89.97657 | 10497 ft | 284 kts | 173° |
| 2026-04-24 20:59 | 34.76341 | -89.97005 | 11209 ft | 291 kts | 167° |
| 2026-04-24 21:00 | 34.74417 | -89.96156 | 11920 ft | 297 kts | 164° |
| 2026-04-24 21:00 | 34.72489 | -89.95196 | 12640 ft | 301 kts | 162° |
| 2026-04-24 21:00 | 34.70552 | -89.94184 | 13381 ft | 304 kts | 162° |
| 2026-04-24 21:00 | 34.68610 | -89.93156 | 14089 ft | 305 kts | 162° |
| 2026-04-24 21:01 | 34.66685 | -89.92141 | 14765 ft | 306 kts | 162° |
| 2026-04-24 21:01 | 34.64702 | -89.91108 | 15467 ft | 306 kts | 162° |
| 2026-04-24 21:01 | 34.62768 | -89.90115 | 16164 ft | 305 kts | 162° |
| 2026-04-24 21:01 | 34.60815 | -89.89123 | 16900 ft | 303 kts | 162° |
| 2026-04-24 21:02 | 34.58872 | -89.88145 | 17642 ft | 300 kts | 162° |
| 2026-04-24 21:02 | 34.56954 | -89.87185 | 18370 ft | 296 kts | 162° |
| 2026-04-24 21:02 | 34.55061 | -89.86240 | 19010 ft | 292 kts | 162° |
| 2026-04-24 21:02 | 34.53211 | -89.85320 | 19559 ft | 291 kts | 162° |
| 2026-04-24 21:03 | 34.51336 | -89.84389 | 20055 ft | 291 kts | 162° |
| 2026-04-24 21:03 | 34.49458 | -89.83457 | 20525 ft | 291 kts | 162° |
| 2026-04-24 21:03 | 34.47560 | -89.82515 | 20884 ft | 297 kts | 162° |
| 2026-04-24 21:03 | 34.45608 | -89.81549 | 21083 ft | 309 kts | 162° |
| 2026-04-24 21:04 | 34.43577 | -89.80543 | 21273 ft | 321 kts | 162° |
| 2026-04-24 21:04 | 34.41496 | -89.79511 | 21452 ft | 333 kts | 162° |
| 2026-04-24 21:04 | 34.39313 | -89.78426 | 21650 ft | 345 kts | 161° |
| 2026-04-24 21:04 | 34.37048 | -89.77298 | 21836 ft | 357 kts | 161° |
| 2026-04-24 21:05 | 34.34707 | -89.76132 | 22043 ft | 369 kts | 161° |
| 2026-04-24 21:05 | 34.32295 | -89.74931 | 22240 ft | 380 kts | 161° |
| 2026-04-24 21:05 | 34.29803 | -89.73690 | 22440 ft | 392 kts | 161° |
| 2026-04-24 21:05 | 34.27240 | -89.72415 | 22654 ft | 403 kts | 161° |
| 2026-04-24 21:06 | 34.24642 | -89.71124 | 22855 ft | 414 kts | 161° |
| 2026-04-24 21:06 | 34.21944 | -89.69783 | 23052 ft | 424 kts | 161° |
| 2026-04-24 21:06 | 34.19172 | -89.68406 | 23230 ft | 434 kts | 161° |
| 2026-04-24 21:06 | 34.16348 | -89.67001 | 23427 ft | 443 kts | 161° |
| 2026-04-24 21:07 | 34.13467 | -89.65568 | 23571 ft | 451 kts | 161° |
| 2026-04-24 21:07 | 34.10542 | -89.64114 | 23767 ft | 457 kts | 161° |
| 2026-04-24 21:07 | 34.07588 | -89.62647 | 24060 ft | 460 kts | 161° |
| 2026-04-24 21:07 | 34.04649 | -89.61190 | 24369 ft | 463 kts | 161° |
| 2026-04-24 21:08 | 34.01659 | -89.59709 | 24684 ft | 464 kts | 161° |
| 2026-04-24 21:08 | 33.98666 | -89.58231 | 24987 ft | 466 kts | 161° |
| 2026-04-24 21:08 | 33.95648 | -89.56743 | 25292 ft | 468 kts | 160° |
| 2026-04-24 21:08 | 33.92622 | -89.55254 | 25537 ft | 471 kts | 160° |
| 2026-04-24 21:09 | 33.89572 | -89.53755 | 25790 ft | 474 kts | 160° |
| 2026-04-24 21:09 | 33.86511 | -89.52253 | 26102 ft | 475 kts | 160° |
| 2026-04-24 21:09 | 33.83478 | -89.50764 | 26389 ft | 476 kts | 160° |
| 2026-04-24 21:09 | 33.80395 | -89.49253 | 26678 ft | 478 kts | 160° |
| 2026-04-24 21:10 | 33.77310 | -89.47741 | 26936 ft | 480 kts | 160° |
| 2026-04-24 21:10 | 33.74208 | -89.46223 | 27208 ft | 481 kts | 160° |
| 2026-04-24 21:10 | 33.71100 | -89.44702 | 27470 ft | 483 kts | 160° |
| 2026-04-24 21:10 | 33.67978 | -89.43175 | 27712 ft | 484 kts | 160° |
| 2026-04-24 21:11 | 33.64846 | -89.41645 | 27934 ft | 486 kts | 160° |
| 2026-04-24 21:11 | 33.61708 | -89.40114 | 28287 ft | 485 kts | 160° |
| 2026-04-24 21:11 | 33.58623 | -89.38608 | 28676 ft | 483 kts | 160° |
| 2026-04-24 21:11 | 33.55512 | -89.37091 | 29058 ft | 482 kts | 160° |
| 2026-04-24 21:12 | 33.52409 | -89.35579 | 29438 ft | 480 kts | 160° |
| 2026-04-24 21:12 | 33.50352 | -89.34578 | 29690 ft | 480 kts | 160° |
| 2026-04-24 21:12 | 33.46216 | -89.32565 | 30145 ft | 478 kts | 160° |
| 2026-04-24 21:12 | 33.43131 | -89.31065 | 30454 ft | 477 kts | 159° |
| 2026-04-24 21:13 | 33.40054 | -89.29571 | 30785 ft | 476 kts | 159° |
| 2026-04-24 21:13 | 33.37027 | -89.28101 | 31126 ft | 474 kts | 159° |
| 2026-04-24 21:13 | 33.33967 | -89.26617 | 31479 ft | 473 kts | 159° |
| 2026-04-24 21:13 | 33.30918 | -89.25138 | 31832 ft | 471 kts | 159° |
| 2026-04-24 21:14 | 33.27878 | -89.23664 | 32156 ft | 470 kts | 159° |
| 2026-04-24 21:14 | 33.24844 | -89.22194 | 32476 ft | 469 kts | 159° |
| 2026-04-24 21:14 | 33.21823 | -89.20732 | 32777 ft | 468 kts | 159° |
| 2026-04-24 21:14 | 33.18794 | -89.19268 | 32902 ft | 467 kts | 159° |
| 2026-04-24 21:15 | 33.15849 | -89.17844 | 32915 ft | 455 kts | 159° |
| 2026-04-24 21:15 | 33.12936 | -89.16434 | 32916 ft | 448 kts | 159° |
| 2026-04-24 21:15 | 33.07172 | -89.13649 | 32917 ft | 446 kts | 159° |
| 2026-04-24 21:16 | 33.01446 | -89.10886 | 32893 ft | 446 kts | 159° |
| 2026-04-24 21:16 | 32.95686 | -89.08111 | 32881 ft | 446 kts | 159° |
| 2026-04-24 21:17 | 32.89923 | -89.05338 | 32881 ft | 446 kts | 159° |
| 2026-04-24 21:17 | 32.85125 | -89.03033 | 32893 ft | 447 kts | 159° |
| 2026-04-24 21:18 | 32.78382 | -88.99795 | 32892 ft | 449 kts | 159° |
| 2026-04-24 21:18 | 32.72577 | -88.97011 | 32894 ft | 449 kts | 159° |
| 2026-04-24 21:19 | 32.66806 | -88.94250 | 32878 ft | 449 kts | 159° |
| 2026-04-24 21:19 | 32.60989 | -88.91470 | 32866 ft | 449 kts | 160° |
| 2026-04-24 21:20 | 32.52258 | -88.87294 | 32838 ft | 456 kts | 160° |
| 2026-04-24 21:21 | 32.46365 | -88.84481 | 32876 ft | 455 kts | 159° |
| 2026-04-24 21:21 | 32.40523 | -88.81689 | 32873 ft | 451 kts | 157° |
| 2026-04-24 21:21 | 32.37838 | -88.79765 | 32899 ft | 452 kts | 142° |
| 2026-04-24 21:22 | 32.35572 | -88.77175 | 32911 ft | 453 kts | 134° |
| 2026-04-24 21:22 | 32.31495 | -88.71529 | 32880 ft | 458 kts | 130° |
| 2026-04-24 21:23 | 32.27482 | -88.65607 | 32881 ft | 462 kts | 130° |
| 2026-04-24 21:23 | 32.23417 | -88.59700 | 32888 ft | 462 kts | 130° |
| 2026-04-24 21:24 | 32.19294 | -88.53851 | 32901 ft | 462 kts | 131° |
| 2026-04-24 21:24 | 32.15171 | -88.48080 | 32909 ft | 462 kts | 131° |
| 2026-04-24 21:25 | 32.11013 | -88.42284 | 32917 ft | 460 kts | 131° |
| 2026-04-24 21:25 | 32.06885 | -88.36541 | 32920 ft | 458 kts | 131° |
| 2026-04-24 21:26 | 32.02778 | -88.30835 | 32925 ft | 461 kts | 131° |
| 2026-04-24 21:26 | 31.98608 | -88.25046 | 32922 ft | 463 kts | 131° |
| 2026-04-24 21:27 | 31.94436 | -88.19256 | 32923 ft | 463 kts | 131° |
| 2026-04-24 21:27 | 31.90260 | -88.13472 | 32925 ft | 463 kts | 131° |
| 2026-04-24 21:28 | 31.86112 | -88.07735 | 32927 ft | 463 kts | 131° |
| 2026-04-24 21:28 | 31.81938 | -88.01973 | 32927 ft | 461 kts | 131° |
| 2026-04-24 21:29 | 31.77804 | -87.96278 | 32925 ft | 461 kts | 131° |
| 2026-04-24 21:29 | 31.73581 | -87.90469 | 32932 ft | 472 kts | 131° |
| 2026-04-24 21:30 | 31.69268 | -87.84530 | 32931 ft | 481 kts | 131° |
| 2026-04-24 21:30 | 31.64916 | -87.78540 | 32933 ft | 481 kts | 131° |
| 2026-04-24 21:31 | 31.60592 | -87.72605 | 32929 ft | 479 kts | 131° |
| 2026-04-24 21:31 | 31.56320 | -87.66762 | 32933 ft | 464 kts | 131° |
| 2026-04-24 21:32 | 31.52122 | -87.61048 | 32930 ft | 461 kts | 131° |
| 2026-04-24 21:32 | 31.48633 | -87.56306 | 32807 ft | 466 kts | 132° |
| 2026-04-24 21:32 | 31.45773 | -87.52415 | 31698 ft | 476 kts | 132° |
| 2026-04-24 21:33 | 31.43633 | -87.49494 | 30820 ft | 481 kts | 132° |
| 2026-04-24 21:33 | 31.42186 | -87.47514 | 30350 ft | 481 kts | 132° |
| 2026-04-24 21:33 | 31.39286 | -87.43541 | 29545 ft | 476 kts | 132° |
| 2026-04-24 21:33 | 31.37137 | -87.40602 | 28879 ft | 473 kts | 132° |
| 2026-04-24 21:34 | 31.35721 | -87.38670 | 28536 ft | 470 kts | 132° |
| 2026-04-24 21:34 | 31.33603 | -87.35788 | 28025 ft | 464 kts | 132° |
| 2026-04-24 21:34 | 31.30825 | -87.32020 | 27506 ft | 455 kts | 132° |
| 2026-04-24 21:34 | 31.29434 | -87.30140 | 27307 ft | 448 kts | 132° |
| 2026-04-24 21:35 | 31.27426 | -87.27433 | 26787 ft | 445 kts | 132° |
| 2026-04-24 21:35 | 31.25383 | -87.24685 | 25925 ft | 451 kts | 131° |
| 2026-04-24 21:35 | 31.23302 | -87.21882 | 24945 ft | 457 kts | 131° |
| 2026-04-24 21:35 | 31.21246 | -87.19108 | 24308 ft | 442 kts | 131° |
| 2026-04-24 21:36 | 31.19277 | -87.16458 | 23956 ft | 422 kts | 131° |
| 2026-04-24 21:36 | 31.17388 | -87.13928 | 23581 ft | 404 kts | 131° |
| 2026-04-24 21:36 | 31.15579 | -87.11516 | 23023 ft | 394 kts | 131° |
| 2026-04-24 21:36 | 31.13812 | -87.09167 | 22758 ft | 376 kts | 131° |
| 2026-04-24 21:37 | 31.12100 | -87.06896 | 22350 ft | 370 kts | 131° |
| 2026-04-24 21:37 | 31.10402 | -87.04641 | 21581 ft | 369 kts | 131° |
| 2026-04-24 21:37 | 31.08691 | -87.02358 | 20515 ft | 376 kts | 131° |
| 2026-04-24 21:37 | 31.06959 | -87.00032 | 19437 ft | 383 kts | 131° |
| 2026-04-24 21:38 | 31.05229 | -86.97693 | 18396 ft | 387 kts | 132° |
| 2026-04-24 21:38 | 31.03467 | -86.95300 | 17261 ft | 390 kts | 131° |
| 2026-04-24 21:38 | 31.01699 | -86.92894 | 16136 ft | 390 kts | 131° |
| 2026-04-24 21:38 | 30.99935 | -86.90495 | 15054 ft | 389 kts | 131° |
| 2026-04-24 21:39 | 30.98178 | -86.88112 | 13995 ft | 386 kts | 131° |
| 2026-04-24 21:39 | 30.96425 | -86.85743 | 12852 ft | 383 kts | 131° |
| 2026-04-24 21:39 | 30.94696 | -86.83412 | 11898 ft | 377 kts | 131° |
| 2026-04-24 21:39 | 30.92996 | -86.81127 | 11313 ft | 376 kts | 131° |
| 2026-04-24 21:40 | 30.91302 | -86.78853 | 11043 ft | 366 kts | 132° |
| 2026-04-24 21:40 | 30.89668 | -86.76663 | 10993 ft | 349 kts | 131° |
| 2026-04-24 21:40 | 30.88135 | -86.74559 | 10918 ft | 334 kts | 130° |
| 2026-04-24 21:40 | 30.86659 | -86.72496 | 10530 ft | 331 kts | 130° |
| 2026-04-24 21:41 | 30.85186 | -86.70427 | 10041 ft | 332 kts | 130° |
| 2026-04-24 21:41 | 30.83736 | -86.68379 | 9528 ft | 332 kts | 130° |
| 2026-04-24 21:41 | 30.82261 | -86.66299 | 8992 ft | 333 kts | 130° |
| 2026-04-24 21:41 | 30.80780 | -86.64215 | 8454 ft | 332 kts | 131° |
| 2026-04-24 21:42 | 30.79009 | -86.62522 | 7905 ft | 329 kts | 155° |
| 2026-04-24 21:42 | 30.76821 | -86.61952 | 7397 ft | 322 kts | 183° |
| 2026-04-24 21:42 | 30.74715 | -86.62596 | 6898 ft | 317 kts | 210° |
| 2026-04-24 21:42 | 30.73051 | -86.64238 | 6425 ft | 314 kts | 229° |
| 2026-04-24 21:43 | 30.71728 | -86.66252 | 5908 ft | 312 kts | 236° |
| 2026-04-24 21:43 | 30.70505 | -86.68337 | 5371 ft | 312 kts | 234° |
| 2026-04-24 21:43 | 30.69121 | -86.70247 | 4835 ft | 302 kts | 224° |
| 2026-04-24 21:43 | 30.67525 | -86.71738 | 4315 ft | 287 kts | 213° |
| 2026-04-24 21:44 | 30.65803 | -86.72808 | 3791 ft | 274 kts | 204° |
| 2026-04-24 21:44 | 30.64043 | -86.73561 | 3331 ft | 274 kts | 198° |
| 2026-04-24 21:44 | 30.62207 | -86.74144 | 3040 ft | 270 kts | 194° |
| 2026-04-24 21:44 | 30.60409 | -86.74603 | 2977 ft | 256 kts | 192° |
| 2026-04-24 21:45 | 30.58690 | -86.74739 | 2975 ft | 241 kts | 173° |
| 2026-04-24 21:45 | 30.57129 | -86.74209 | 2984 ft | 230 kts | 156° |
| 2026-04-24 21:45 | 30.55855 | -86.73141 | 2811 ft | 223 kts | 135° |
| 2026-04-24 21:45 | 30.54998 | -86.71712 | 2644 ft | 217 kts | 123° |
| 2026-04-24 21:46 | 30.54329 | -86.70149 | 2413 ft | 210 kts | 118° |
| 2026-04-24 21:46 | 30.53785 | -86.68624 | 2183 ft | 201 kts | 115° |
| 2026-04-24 21:46 | 30.53286 | -86.67143 | 1959 ft | 191 kts | 115° |
| 2026-04-24 21:46 | 30.52841 | -86.65759 | 1737 ft | 177 kts | 108° |
| 2026-04-24 21:47 | 30.52763 | -86.64369 | 1514 ft | 167 kts | 93° |
| 2026-04-24 21:47 | 30.52838 | -86.63048 | 1358 ft | 157 kts | 102° |
| 2026-04-24 21:47 | 30.52535 | -86.61995 | 1776 ft | 130 kts | 124° |
| 2026-04-24 21:47 | 30.52072 | -86.61053 | 1874 ft | 139 kts | 128° |
| 2026-04-24 21:48 | 30.51518 | -86.60090 | 1753 ft | 145 kts | 130° |
| 2026-04-24 21:48 | 30.50943 | -86.59071 | 1562 ft | 146 kts | 127° |
| 2026-04-24 21:48 | 30.50396 | -86.58088 | 1193 ft | 141 kts | 128° |
| 2026-04-24 21:48 | 30.49860 | -86.57137 | 774 ft | 142 kts | 126° |
| 2026-04-24 21:49 | 30.49421 | -86.56144 | 481 ft | 129 kts | 121° |
| 2026-04-24 21:49 | 30.48942 | -86.55320 | 168 ft | 115 kts | 124° |
| 2026-04-24 21:49 | 30.48569 | -86.54607 | 109 ft | 84 kts | 118° |
| 2026-04-24 21:49 | 30.48366 | -86.54184 | 107 ft | 36 kts | 120° |
| 2026-04-24 21:50 | 30.48256 | -86.53963 | 108 ft | 29 kts | 120° |
| 2026-04-24 21:50 | 30.48164 | -86.53774 | 110 ft | 26 kts | 121° |
| 2026-04-24 21:50 | 30.48063 | -86.53571 | 107 ft | 31 kts | 118° |
| 2026-04-24 21:50 | 30.47966 | -86.53369 | 106 ft | 28 kts | 119° |
| 2026-04-24 21:51 | 30.47873 | -86.53184 | 104 ft | 25 kts | 120° |
| 2026-04-24 21:51 | 30.47821 | -86.53025 | 105 ft | 20 kts | 79° |
| 2026-04-24 21:51 | 30.47915 | -86.52930 | 104 ft | 17 kts | 28° |
| 2026-04-24 21:51 | 30.48015 | -86.52976 | 105 ft | 21 kts | 305° |
| 2026-04-24 21:52 | 30.48088 | -86.53119 | 101 ft | 21 kts | 300° |
| 2026-04-24 21:52 | 30.48152 | -86.53260 | 103 ft | 19 kts | 297° |
| 2026-04-24 21:52 | 30.48220 | -86.53388 | 104 ft | 19 kts | 301° |
| 2026-04-24 21:52 | 30.48285 | -86.53515 | 107 ft | 17 kts | 300° |
| 2026-04-24 21:53 | 30.48341 | -86.53629 | 106 ft | 21 kts | 298° |
| 2026-04-24 21:53 | 30.48432 | -86.53816 | 105 ft | 27 kts | 298° |
| 2026-04-24 21:53 | 30.48520 | -86.54005 | 106 ft | 26 kts | 299° |
| 2026-04-24 21:53 | 30.48608 | -86.54181 | 104 ft | 24 kts | 300° |
| 2026-04-24 21:54 | 30.48689 | -86.54345 | 104 ft | 23 kts | 300° |
| 2026-04-24 21:54 | 30.48763 | -86.54497 | 107 ft | 20 kts | 298° |
| 2026-04-24 21:54 | 30.48828 | -86.54625 | 108 ft | 18 kts | 301° |
| 2026-04-24 21:54 | 30.48892 | -86.54750 | 109 ft | 21 kts | 300° |
| 2026-04-24 21:55 | 30.48959 | -86.54891 | 110 ft | 19 kts | 301° |
| 2026-04-24 21:55 | 30.49053 | -86.54942 | 107 ft | 17 kts | 20° |
| 2026-04-24 21:55 | 30.49160 | -86.54881 | 104 ft | 17 kts | 27° |
| 2026-04-24 21:55 | 30.49267 | -86.54846 | 101 ft | 15 kts | 5° |
| 2026-04-24 21:56 | 30.49321 | -86.54814 | 102 ft | 7 kts | 61° |
| 2026-04-24 21:56 | 30.49328 | -86.54768 | 101 ft | 0 kts | 84° |